createdAt,value
2022-08-12T00:00:55.142Z,51.47
2022-08-12T00:03:40.696Z,51.60
2022-08-12T00:06:26.917Z,51.49
2022-08-12T00:09:14.005Z,52.41
2022-08-12T00:11:59.996Z,52.46
2022-08-12T00:14:45.201Z,52.39
2022-08-12T00:17:31.569Z,52.60
2022-08-12T00:20:16.779Z,53.30
2022-08-12T00:23:02.804Z,53.08
2022-08-12T00:26:21.126Z,53.55
2022-08-12T00:29:02.349Z,53.55
2022-08-12T00:31:48.107Z,53.02
2022-08-12T00:34:33.300Z,53.25
2022-08-12T00:37:19.016Z,53.07
2022-08-12T00:40:11.027Z,52.60
2022-08-12T00:42:41.688Z,51.63
2022-08-12T00:45:10.908Z,51.61
2022-08-12T00:47:39.423Z,51.92
2022-08-12T00:50:09.229Z,51.94
2022-08-12T00:52:37.225Z,52.48
2022-08-12T00:55:06.553Z,52.89
2022-08-12T00:57:36.442Z,52.41
2022-08-12T01:00:09.827Z,51.70
2022-08-12T01:02:40.451Z,51.37
2022-08-12T01:05:29.581Z,51.76
2022-08-12T01:08:15.465Z,51.32
2022-08-12T01:11:02.667Z,51.33
2022-08-12T01:13:32.151Z,51.13
2022-08-12T01:16:03.004Z,51.18
2022-08-12T01:18:33.273Z,51.13
2022-08-12T01:21:11.786Z,51.44
2022-08-12T01:23:50.334Z,51.18
2022-08-12T01:26:21.075Z,50.82
2022-08-12T01:28:51.589Z,51.40
2022-08-12T01:31:21.510Z,51.87
2022-08-12T01:33:59.740Z,52.52
2022-08-12T01:36:28.903Z,52.63
2022-08-12T01:38:59.459Z,52.51
2022-08-12T01:41:30.876Z,52.14
2022-08-12T01:44:02.206Z,51.87
2022-08-12T01:46:40.513Z,51.11
2022-08-12T01:49:21.884Z,51.08
2022-08-12T01:52:15.637Z,51.00
2022-08-12T01:54:47.037Z,51.50
2022-08-12T01:57:57.796Z,52.41
2022-08-12T02:00:13.745Z,52.94
2022-08-12T02:02:46.672Z,53.33
2022-08-12T02:05:36.224Z,53.96
2022-08-12T02:08:36.785Z,54.14
2022-08-12T02:11:17.252Z,54.89
2022-08-12T02:14:07.467Z,54.80
2022-08-12T02:16:50.601Z,54.79
2022-08-12T02:19:27.755Z,54.32
2022-08-12T02:22:02.790Z,54.61
2022-08-12T02:24:34.278Z,55.37
2022-08-12T02:27:02.506Z,55.10
2022-08-12T02:29:32.033Z,54.80
2022-08-12T02:32:00.254Z,54.51
2022-08-12T02:34:28.523Z,54.60
2022-08-12T02:36:57.465Z,55.58
2022-08-12T02:39:31.413Z,54.63
2022-08-12T02:42:01.848Z,54.13
2022-08-12T02:44:37.309Z,53.63
2022-08-12T02:47:07.098Z,54.08
2022-08-12T02:49:55.230Z,55.29
2022-08-12T02:52:23.868Z,55.86
2022-08-12T02:54:56.200Z,56.14
2022-08-12T02:57:25.570Z,54.90
2022-08-12T02:59:55.358Z,56.00
2022-08-12T03:02:23.828Z,56.37
2022-08-12T03:04:56.421Z,55.21
2022-08-12T03:07:49.271Z,54.98
2022-08-12T03:10:36.817Z,55.73
2022-08-12T03:13:06.952Z,56.39
2022-08-12T03:15:36.610Z,57.02
2022-08-12T03:18:26.016Z,56.77
2022-08-12T03:20:56.975Z,55.11
2022-08-12T03:23:29.037Z,55.00
2022-08-12T03:26:00.664Z,55.45
2022-08-12T03:28:46.943Z,55.07
2022-08-12T03:31:16.737Z,56.16
2022-08-12T03:34:00.915Z,56.07
2022-08-12T03:36:33.520Z,55.74
2022-08-12T03:42:02.247Z,56.71
2022-08-12T03:44:50.751Z,56.52
2022-08-12T03:47:39.717Z,55.20
2022-08-12T03:50:25.919Z,55.45
2022-08-12T03:53:11.385Z,56.42
2022-08-12T03:55:57.155Z,56.71
2022-08-12T03:58:44.378Z,58.06
2022-08-12T04:01:13.034Z,57.72
2022-08-12T04:03:53.491Z,56.67
2022-08-12T04:06:34.878Z,57.39
2022-08-12T04:09:16.079Z,57.75
2022-08-12T04:12:03.239Z,57.73
2022-08-12T04:14:33.924Z,57.87
2022-08-12T04:17:02.501Z,57.60
2022-08-12T04:19:30.941Z,57.33
2022-08-12T04:22:01.638Z,56.63
2022-08-12T04:24:31.393Z,56.85
2022-08-12T04:26:59.209Z,57.38
2022-08-12T04:30:29.704Z,57.96
2022-08-12T04:32:16.896Z,56.75
2022-08-12T04:34:45.008Z,56.33
2022-08-12T04:37:13.528Z,55.70
2022-08-12T04:39:42.128Z,56.42
2022-08-12T04:42:09.990Z,55.72
2022-08-12T04:44:37.873Z,55.89
2022-08-12T04:47:06.031Z,56.08
2022-08-12T04:49:36.147Z,55.32
2022-08-12T04:52:04.826Z,54.91
2022-08-12T04:54:34.423Z,55.26
2022-08-12T04:57:04.888Z,55.52
2022-08-12T04:59:47.531Z,55.06
2022-08-12T05:02:20.590Z,54.03
2022-08-12T05:04:52.726Z,54.02
2022-08-12T05:07:21.163Z,53.31
2022-08-12T05:09:58.895Z,52.38
2022-08-12T05:12:36.590Z,51.73
2022-08-12T05:15:16.765Z,50.87
2022-08-12T05:17:55.295Z,49.68
2022-08-12T05:20:26.155Z,50.49
2022-08-12T05:23:12.514Z,50.98
2022-08-12T05:25:40.858Z,50.59
2022-08-12T05:28:08.658Z,50.87
2022-08-12T05:30:37.228Z,49.97
2022-08-12T05:33:05.696Z,49.26
2022-08-12T05:35:39.992Z,48.51
2022-08-12T05:38:25.766Z,48.92
2022-08-12T05:40:53.679Z,49.08
2022-08-12T05:43:22.025Z,47.85
2022-08-12T05:45:50.382Z,47.05
2022-08-12T05:48:18.542Z,46.75
2022-08-12T05:50:48.727Z,46.43
2022-08-12T05:53:16.748Z,46.38
2022-08-12T05:55:44.581Z,46.93
2022-08-12T05:58:12.450Z,46.43
2022-08-12T06:00:42.391Z,45.58
2022-08-12T06:03:11.022Z,45.05
2022-08-12T06:05:51.798Z,44.71
2022-08-12T06:08:26.783Z,44.05
2022-08-12T06:10:57.094Z,43.64
2022-08-12T06:13:28.605Z,43.09
2022-08-12T06:16:14.841Z,42.55
2022-08-12T06:18:43.312Z,42.02
2022-08-12T06:21:12.553Z,42.63
2022-08-12T06:23:42.807Z,41.67
2022-08-12T06:26:12.855Z,41.94
2022-08-12T06:28:41.327Z,41.48
2022-08-12T06:31:25.710Z,40.73
2022-08-12T06:35:24.246Z,40.14
2022-08-12T06:36:43.188Z,40.44
2022-08-12T06:39:14.335Z,39.93
2022-08-12T06:42:10.671Z,39.79
2022-08-12T06:44:48.546Z,39.59
2022-08-12T06:47:16.744Z,38.62
2022-08-12T06:49:44.573Z,38.14
2022-08-12T06:52:12.410Z,37.87
2022-08-12T06:54:45.920Z,37.70
2022-08-12T06:58:06.179Z,37.59
2022-08-12T07:00:01.663Z,36.55
2022-08-12T07:02:32.613Z,36.50
2022-08-12T07:05:04.346Z,35.79
2022-08-12T07:07:32.197Z,36.11
2022-08-12T07:10:07.800Z,35.95
2022-08-12T07:12:36.779Z,36.37
2022-08-12T07:15:05.367Z,35.89
2022-08-12T07:17:37.452Z,35.03
2022-08-12T07:20:09.858Z,35.46
2022-08-12T07:22:39.764Z,35.71
2022-08-12T07:25:27.292Z,34.76
2022-08-12T07:27:55.851Z,34.72
2022-08-12T07:30:24.127Z,34.00
2022-08-12T07:32:52.355Z,33.40
2022-08-12T07:35:20.737Z,33.22
2022-08-12T07:37:50.467Z,32.39
2022-08-12T07:40:21.063Z,32.66
2022-08-12T07:42:49.582Z,32.14
2022-08-12T07:45:18.012Z,32.77
2022-08-12T07:47:45.893Z,31.68
2022-08-12T07:50:21.453Z,31.76
2022-08-12T07:52:51.624Z,31.08
2022-08-12T07:55:21.069Z,30.63
2022-08-12T07:57:58.585Z,30.20
2022-08-12T08:00:27.307Z,29.41
2022-08-12T08:02:55.467Z,28.32
2022-08-12T08:05:25.638Z,28.74
2022-08-12T08:07:55.591Z,28.78
2022-08-12T08:10:26.202Z,27.92
2022-08-12T08:12:58.041Z,27.35
2022-08-12T08:15:51.242Z,27.43
2022-08-12T08:18:26.461Z,27.51
2022-08-12T08:20:56.163Z,27.38
2022-08-12T08:23:46.359Z,27.80
2022-08-12T08:26:16.464Z,27.29
2022-08-12T08:28:44.528Z,26.40
2022-08-12T08:31:14.228Z,26.51
2022-08-12T08:34:09.081Z,26.25
2022-08-12T08:36:30.395Z,25.70
2022-08-12T08:38:58.883Z,25.60
2022-08-12T08:42:16.166Z,25.23
2022-08-12T08:44:33.473Z,25.06
2022-08-12T08:47:02.342Z,24.96
2022-08-12T08:49:30.145Z,22.69
2022-08-12T08:51:57.953Z,23.24
2022-08-12T08:54:25.774Z,23.47
2022-08-12T08:56:54.963Z,22.86
2022-08-12T08:59:23.382Z,23.13
2022-08-12T09:01:51.313Z,22.27
2022-08-12T09:05:13.512Z,22.74
2022-08-12T09:10:02.345Z,21.51
2022-08-12T09:12:54.673Z,21.15
2022-08-12T09:15:35.447Z,21.55
2022-08-12T09:18:05.784Z,21.06
2022-08-12T09:20:38.585Z,21.21
2022-08-12T09:25:56.138Z,21.06
2022-08-12T09:28:31.176Z,20.97
2022-08-12T09:31:00.110Z,20.39
2022-08-12T09:34:27.306Z,20.40
2022-08-12T09:36:30.995Z,20.44
2022-08-12T09:40:03.590Z,20.66
2022-08-12T09:42:39.225Z,20.81
2022-08-12T09:45:23.353Z,20.57
2022-08-12T09:47:59.670Z,21.02
2022-08-12T09:50:28.107Z,21.22
2022-08-12T09:53:14.837Z,20.48
2022-08-12T09:56:05.640Z,20.86
2022-08-12T09:58:58.062Z,20.45
2022-08-12T10:01:26.531Z,20.04
2022-08-12T10:04:05.594Z,20.38
2022-08-12T10:06:36.392Z,19.53
2022-08-12T10:09:06.671Z,19.66
2022-08-12T10:12:12.096Z,19.58
2022-08-12T10:14:50.010Z,20.14
2022-08-12T10:17:23.455Z,19.38
2022-08-12T10:19:52.519Z,19.61
2022-08-12T10:22:39.436Z,19.13
2022-08-12T10:26:34.327Z,19.70
2022-08-12T10:28:32.808Z,20.09
2022-08-12T10:31:01.565Z,19.92
2022-08-12T10:33:54.986Z,19.63
2022-08-12T10:36:40.174Z,19.17
2022-08-12T10:40:00.274Z,19.37
2022-08-12T10:42:18.282Z,19.60
2022-08-12T10:45:00.861Z,19.53
2022-08-12T10:48:20.386Z,18.38
2022-08-12T10:50:33.557Z,20.12
2022-08-12T10:53:10.325Z,19.51
2022-08-12T10:55:51.098Z,18.95
2022-08-12T10:58:30.753Z,17.81
2022-08-12T11:01:49.331Z,16.77
2022-08-12T11:04:23.068Z,17.15
2022-08-12T11:07:05.075Z,16.88
2022-08-12T11:09:41.440Z,17.11
2022-08-12T11:12:54.845Z,16.67
2022-08-12T11:15:18.949Z,16.81
2022-08-12T11:17:54.006Z,15.63
2022-08-12T11:20:24.568Z,14.89
2022-08-12T11:22:59.624Z,14.59
2022-08-12T11:25:56.465Z,13.95
2022-08-12T11:28:16.956Z,13.81
2022-08-12T11:31:01.110Z,13.24
2022-08-12T11:34:05.579Z,12.80
2022-08-12T11:36:17.221Z,13.24
2022-08-12T11:38:50.610Z,14.10
2022-08-12T11:41:27.851Z,12.97
2022-08-12T11:43:59.091Z,13.45
2022-08-12T11:46:27.062Z,12.00
2022-08-12T11:48:54.864Z,12.22
2022-08-12T11:51:22.730Z,12.07
2022-08-12T11:53:58.404Z,12.77
2022-08-12T11:56:38.545Z,13.96
2022-08-12T12:02:04.689Z,12.61
2022-08-12T12:04:34.244Z,12.66
2022-08-12T12:07:07.658Z,13.11
2022-08-12T12:09:52.294Z,12.54
2022-08-12T12:12:21.525Z,14.03
2022-08-12T12:14:54.193Z,13.29
2022-08-12T12:17:23.108Z,12.81
2022-08-12T12:19:51.016Z,12.92
2022-08-12T12:22:23.676Z,12.76
2022-08-12T12:25:13.401Z,13.49
2022-08-12T12:28:04.727Z,12.64
2022-08-12T12:30:34.021Z,12.30
2022-08-12T12:33:01.873Z,12.50
2022-08-12T12:36:19.904Z,12.33
2022-08-12T12:38:17.767Z,10.67
2022-08-12T12:40:50.378Z,9.94
2022-08-12T12:43:28.719Z,11.16
2022-08-12T12:46:07.141Z,11.93
2022-08-12T12:48:36.800Z,12.11
2022-08-12T12:51:48.373Z,11.49
2022-08-12T12:54:09.865Z,13.35
2022-08-12T12:56:42.416Z,11.94
2022-08-12T12:59:54.662Z,12.75
2022-08-12T13:02:08.237Z,10.89
2022-08-12T13:04:37.405Z,9.70
2022-08-12T13:07:06.541Z,9.75
2022-08-12T13:09:35.838Z,11.33
2022-08-12T13:12:09.015Z,10.88
2022-08-12T13:14:39.865Z,10.82
2022-08-12T13:17:09.718Z,12.21
2022-08-12T13:19:46.881Z,10.72
2022-08-12T13:22:20.024Z,11.88
2022-08-12T13:24:55.030Z,11.27
2022-08-12T13:27:35.094Z,12.93
2022-08-12T13:30:06.564Z,11.75
2022-08-12T13:32:34.998Z,12.11
2022-08-12T13:35:04.224Z,10.00
2022-08-12T13:37:55.163Z,9.59
2022-08-12T13:40:24.877Z,11.63
2022-08-12T13:42:57.479Z,10.21
2022-08-12T13:45:25.671Z,11.69
2022-08-12T13:47:56.360Z,12.24
2022-08-12T13:50:32.453Z,11.60
2022-08-12T13:53:23.378Z,11.45
2022-08-12T13:55:59.505Z,11.99
2022-08-12T13:58:34.752Z,10.18
2022-08-12T14:01:05.402Z,11.11
2022-08-12T14:03:50.142Z,11.32
2022-08-12T14:06:19.745Z,10.19
2022-08-12T14:08:49.626Z,9.25
2022-08-12T14:11:18.227Z,9.70
2022-08-12T14:14:04.712Z,10.85
2022-08-12T14:16:48.336Z,9.64
2022-08-12T14:19:25.636Z,8.66
2022-08-12T14:22:04.980Z,9.35
2022-08-12T14:24:40.472Z,10.40
2022-08-12T14:27:10.301Z,10.01
2022-08-12T14:30:04.512Z,7.94
2022-08-12T14:32:35.678Z,9.14
2022-08-12T14:35:09.082Z,9.57
2022-08-12T14:37:54.926Z,8.68
2022-08-12T14:40:27.458Z,7.99
2022-08-12T14:42:56.950Z,7.71
2022-08-12T14:45:44.525Z,8.29
2022-08-12T14:48:15.604Z,8.82
2022-08-12T14:51:02.583Z,10.20
2022-08-12T14:59:26.401Z,9.40
2022-08-12T15:01:56.553Z,9.76
2022-08-12T15:04:29.103Z,10.23
2022-08-12T15:06:58.126Z,9.39
2022-08-12T15:09:29.034Z,9.35
2022-08-12T15:12:03.772Z,10.23
2022-08-12T15:14:32.325Z,9.70
2022-08-12T15:17:06.929Z,9.93
2022-08-12T15:20:30.767Z,9.03
2022-08-12T15:22:39.277Z,8.76
2022-08-12T15:25:11.172Z,8.18
2022-08-12T15:28:03.988Z,8.90
2022-08-12T15:30:34.417Z,8.59
2022-08-12T15:33:14.785Z,7.92
2022-08-12T15:35:50.250Z,8.04
2022-08-12T15:38:22.314Z,8.68
2022-08-12T15:40:53.503Z,7.87
2022-08-12T15:43:50.893Z,8.41
2022-08-12T15:46:15.424Z,9.76
2022-08-12T15:48:46.821Z,10.35
2022-08-12T15:51:58.506Z,10.18
2022-08-12T15:54:30.962Z,10.38
2022-08-12T15:57:05.285Z,10.13
2022-08-12T16:00:00.215Z,9.88
2022-08-12T16:02:21.278Z,9.47
2022-08-12T16:04:51.403Z,9.48
2022-08-12T16:07:36.922Z,11.53
2022-08-12T16:10:09.085Z,11.01
2022-08-12T16:12:43.539Z,12.59
2022-08-12T16:15:23.562Z,12.13
2022-08-12T16:18:20.359Z,12.62
2022-08-12T16:20:46.923Z,12.00
2022-08-12T16:23:36.562Z,11.08
2022-08-12T16:26:14.941Z,10.76
2022-08-12T16:28:47.394Z,10.90
2022-08-12T16:31:22.523Z,12.06
2022-08-12T16:33:56.771Z,13.36
2022-08-12T16:36:30.433Z,13.16
2022-08-12T16:39:01.593Z,13.88
2022-08-12T16:41:38.079Z,12.98
2022-08-12T16:44:08.285Z,13.86
2022-08-12T16:46:36.381Z,14.64
2022-08-12T16:49:09.265Z,15.01
2022-08-12T16:51:46.568Z,13.60
2022-08-12T16:54:16.912Z,12.78
2022-08-12T16:56:54.613Z,11.91
2022-08-12T16:59:31.100Z,11.49
2022-08-12T17:02:31.927Z,10.71
2022-08-12T17:05:04.916Z,10.35
2022-08-12T17:07:38.091Z,10.29
2022-08-12T17:10:12.358Z,9.44
2022-08-12T17:12:40.628Z,10.24
2022-08-12T17:15:50.663Z,10.07
2022-08-12T17:18:42.103Z,10.55
2022-08-12T17:20:49.021Z,10.93
2022-08-12T17:23:20.521Z,10.13
2022-08-12T17:25:51.232Z,10.04
2022-08-12T17:28:20.168Z,11.55
2022-08-12T17:30:59.980Z,10.72
2022-08-12T17:33:33.668Z,10.45
2022-08-12T17:36:05.441Z,11.03
2022-08-12T17:38:35.670Z,12.89
2022-08-12T17:41:21.546Z,12.50
2022-08-12T17:43:58.238Z,12.73
2022-08-12T17:46:33.042Z,14.30
2022-08-12T17:49:06.773Z,14.78
2022-08-12T17:52:02.276Z,15.43
2022-08-12T17:54:32.824Z,15.29
2022-08-12T17:57:01.364Z,15.45
2022-08-12T17:59:47.735Z,16.00
2022-08-12T18:02:25.590Z,15.68
2022-08-12T18:05:09.611Z,16.51
2022-08-12T18:07:39.288Z,17.10
2022-08-12T18:10:09.654Z,17.13
2022-08-12T18:12:42.699Z,18.19
2022-08-12T18:15:26.459Z,18.24
2022-08-12T18:18:16.775Z,18.91
2022-08-12T18:20:47.300Z,18.34
2022-08-12T18:23:24.200Z,18.41
2022-08-12T18:26:15.089Z,18.83
2022-08-12T18:28:44.475Z,19.44
2022-08-12T18:31:18.218Z,19.64
2022-08-12T18:33:47.137Z,19.90
2022-08-12T18:36:22.444Z,19.58
2022-08-12T18:38:56.247Z,19.89
2022-08-12T18:41:33.476Z,19.60
2022-08-12T18:44:05.274Z,20.12
2022-08-12T18:46:47.533Z,20.22
2022-08-12T18:49:29.764Z,20.63
2022-08-12T18:52:04.229Z,21.04
2022-08-12T18:54:36.363Z,21.43
2022-08-12T18:57:19.679Z,21.14
2022-08-12T19:00:00.937Z,21.14
2022-08-12T19:02:32.941Z,21.94
2022-08-12T19:05:10.039Z,22.03
2022-08-12T19:07:59.998Z,22.30
2022-08-12T19:10:31.166Z,23.00
2022-08-12T19:13:23.434Z,22.68
2022-08-12T19:15:54.444Z,22.88
2022-08-12T19:18:24.350Z,23.06
2022-08-12T19:20:52.210Z,22.89
2022-08-12T19:23:21.502Z,23.53
2022-08-12T19:26:01.354Z,24.26
2022-08-12T19:28:34.723Z,24.46
2022-08-12T19:31:56.414Z,24.86
2022-08-12T19:37:22.809Z,24.92
2022-08-12T19:40:09.842Z,25.08
2022-08-12T19:43:00.713Z,25.65
2022-08-12T19:45:43.406Z,25.48
2022-08-12T19:48:19.559Z,26.04
2022-08-12T19:50:50.149Z,25.95
2022-08-12T19:53:18.943Z,26.67
2022-08-12T19:55:50.761Z,26.61
2022-08-12T19:58:21.064Z,26.36
2022-08-12T20:00:53.340Z,26.77
2022-08-12T20:03:39.380Z,27.39
2022-08-12T20:06:15.962Z,27.61
2022-08-12T20:08:53.821Z,27.96
2022-08-12T20:12:13.148Z,27.83
2022-08-12T20:14:17.658Z,28.52
2022-08-12T20:16:51.747Z,28.79
2022-08-12T20:19:23.286Z,29.53
2022-08-12T20:21:51.873Z,29.67
2022-08-12T20:24:23.242Z,29.69
2022-08-12T20:26:59.574Z,30.07
2022-08-12T20:29:35.711Z,30.08
2022-08-12T20:32:09.459Z,29.90
2022-08-12T20:34:38.960Z,30.52
2022-08-12T20:37:07.021Z,31.17
2022-08-12T20:39:55.975Z,31.77
2022-08-12T20:42:26.169Z,32.17
2022-08-12T20:44:59.525Z,31.99
2022-08-12T20:47:41.954Z,32.39
2022-08-12T20:50:15.352Z,32.86
2022-08-12T20:52:45.211Z,33.11
2022-08-12T20:55:15.591Z,33.17
2022-08-12T20:58:01.892Z,33.60
2022-08-12T21:00:31.165Z,33.24
2022-08-12T21:03:20.753Z,32.92
2022-08-12T21:06:11.839Z,33.33
2022-08-12T21:08:42.670Z,33.83
2022-08-12T21:11:10.651Z,33.97
2022-08-12T21:13:42.067Z,33.98
2022-08-12T21:16:10.546Z,33.79
2022-08-12T21:18:40.997Z,33.97
2022-08-12T21:21:24.221Z,34.26
2022-08-12T21:23:58.769Z,34.02
2022-08-12T21:26:27.733Z,33.50
2022-08-12T21:29:01.757Z,33.20
2022-08-12T21:32:36.797Z,34.67
2022-08-12T21:34:26.350Z,33.23
2022-08-12T21:37:12.901Z,34.20
2022-08-12T21:39:52.451Z,34.34
2022-08-12T21:42:21.070Z,34.47
2022-08-12T21:45:47.775Z,34.71
2022-08-12T21:47:43.856Z,35.17
2022-08-12T21:50:18.176Z,35.25
2022-08-12T21:52:49.293Z,35.32
2022-08-12T21:55:20.208Z,35.40
2022-08-12T21:57:53.374Z,35.37
2022-08-12T22:00:32.097Z,35.16
2022-08-12T22:04:04.305Z,35.62
2022-08-12T22:06:26.207Z,35.68
2022-08-12T22:09:02.618Z,36.15
2022-08-12T22:11:41.796Z,36.04
2022-08-12T22:14:21.812Z,36.70
2022-08-12T22:16:54.424Z,36.84
2022-08-12T22:19:23.363Z,36.60
2022-08-12T22:21:55.629Z,36.55
2022-08-12T22:24:26.969Z,36.83
2022-08-12T22:26:58.176Z,36.33
2022-08-12T22:29:43.729Z,35.38
2022-08-12T22:32:12.252Z,35.51
2022-08-12T22:34:40.426Z,35.15
2022-08-12T22:37:19.570Z,35.34
2022-08-12T22:39:49.025Z,34.41
2022-08-12T22:42:35.237Z,34.68
2022-08-12T22:45:23.350Z,35.23
2022-08-12T22:47:55.403Z,35.57
2022-08-12T22:50:27.792Z,36.18
2022-08-12T22:53:15.094Z,36.95
2022-08-12T22:56:00.623Z,37.05
2022-08-12T22:58:33.443Z,37.17
2022-08-12T23:01:03.556Z,37.21
2022-08-12T23:03:48.891Z,37.46
2022-08-12T23:06:21.201Z,37.06
2022-08-12T23:08:50.839Z,37.14
2022-08-12T23:11:23.566Z,37.27
2022-08-12T23:13:55.153Z,37.32
2022-08-12T23:16:28.790Z,37.87
2022-08-12T23:19:01.725Z,37.99
2022-08-12T23:21:40.389Z,37.77
2022-08-12T23:24:29.569Z,38.06
2022-08-12T23:27:15.326Z,37.62
2022-08-12T23:30:17.638Z,36.96
2022-08-12T23:32:35.226Z,37.27
2022-08-12T23:35:04.134Z,36.77
2022-08-12T23:37:47.374Z,36.92
2022-08-12T23:40:22.427Z,37.04
2022-08-12T23:42:54.858Z,36.84
2022-08-12T23:45:31.208Z,37.12
2022-08-12T23:48:00.337Z,37.35
2022-08-12T23:50:33.769Z,36.51
2022-08-12T23:53:05.575Z,36.57
2022-08-12T23:55:40.596Z,37.01
2022-08-12T23:58:23.025Z,36.71
